Time;durP1;ratioP1;P1;durP2;ratioP2;P2;SDS_P1;SDS_P2;PMS_P1;PMS_P2;Temp;Humidity;BMP_temperature;BMP_pressure;BME280_temperature;BME280_humidity;BME280_pressure;Samples;Min_cycle;Max_cycle;Signal;HPM_P1;HPM_P2
2023/01/20 00:04:57;;;;;;;7.18;4.63;;;;;;;20.91;52.29;99491.56;20929972;28;20048;-83
2023/01/20 00:14:57;;;;;;;6.90;4.70;;;;;;;20.90;52.00;99492.53;20955547;28;20055;-82
2023/01/20 00:24:58;;;;;;;5.75;4.20;;;;;;;20.89;52.07;99525.06;20950435;28;20048;-83
2023/01/20 00:34:58;;;;;;;6.07;4.03;;;;;;;20.88;51.94;99536.56;20936336;28;20041;-84
2023/01/20 00:44:58;;;;;;;7.18;4.38;;;;;;;20.87;51.73;99544.59;20924025;28;20073;-82
2023/01/20 00:54:59;;;;;;;7.43;4.03;;;;;;;20.84;51.91;99550.97;20926851;28;20109;-82
2023/01/20 01:04:59;;;;;;;8.77;4.70;;;;;;;20.84;51.68;99548.34;20921625;28;20041;-82
2023/01/20 01:15:06;;;;;;;6.50;4.13;;;;;;;20.79;51.64;99514.53;20927816;28;20687;-83
2023/01/20 01:25:07;;;;;;;6.38;4.28;;;;;;;20.78;51.64;99504.97;20932040;28;20076;-83
2023/01/20 01:35:07;;;;;;;6.53;3.95;;;;;;;20.77;51.74;99482.25;20924713;28;20033;-82
2023/01/20 01:45:11;;;;;;;4.97;3.50;;;;;;;20.75;51.88;99478.97;20929805;28;20049;-82
2023/01/20 01:55:12;;;;;;;5.68;3.72;;;;;;;20.69;52.28;99466.31;20937129;28;20074;-82
2023/01/20 02:05:15;;;;;;;4.88;3.47;;;;;;;20.66;52.16;99457.88;20922564;28;20056;-82
2023/01/20 02:15:16;;;;;;;5.03;3.50;;;;;;;20.63;52.19;99457.19;20925563;28;20128;-82
2023/01/20 02:25:26;;;;;;;3.80;3.20;;;;;;;20.59;52.47;99461.06;20921637;28;20077;-82
2023/01/20 02:35:41;;;;;;;6.43;4.00;;;;;;;20.58;52.21;99463.81;20915057;28;20080;-82
2023/01/20 02:45:51;;;;;;;4.03;3.15;;;;;;;20.57;52.31;99465.63;20935324;28;20115;-82
2023/01/20 02:55:54;;;;;;;4.43;3.08;;;;;;;20.52;52.66;99475.72;20855612;28;20073;-82
2023/01/20 03:05:58;;;;;;;4.67;3.33;;;;;;;20.56;52.52;99489.44;20875570;28;20045;-82
2023/01/20 03:16:08;;;;;;;5.65;3.30;;;;;;;20.58;52.90;99503.25;20854792;28;20336;-83
2023/01/20 03:26:11;;;;;;;3.78;3.00;;;;;;;20.60;52.36;99511.84;20850765;28;20159;-82
2023/01/20 03:36:15;;;;;;;4.22;3.28;;;;;;;20.56;52.59;99510.47;20846757;28;20038;-83
2023/01/20 03:46:42;;;;;;;5.10;2.97;;;;;;;20.54;52.43;99507.97;20852435;28;20036;-84
2023/01/20 03:56:52;;;;;;;5.15;3.13;;;;;;;20.55;52.18;99500.91;20832967;28;20524;-82
2023/01/20 04:06:53;;;;;;;4.60;3.05;;;;;;;20.55;52.22;99483.31;20837829;28;21537;-83
2023/01/20 04:16:58;;;;;;;5.03;3.28;;;;;;;20.53;52.23;99474.75;20850644;28;20080;-82
2023/01/20 04:26:58;;;;;;;4.65;2.70;;;;;;;20.51;52.31;99487.19;20853532;28;20407;-82
2023/01/20 04:36:59;;;;;;;4.40;2.95;;;;;;;20.51;52.24;99486.34;20850312;28;20046;-83
2023/01/20 04:47:01;;;;;;;4.30;2.80;;;;;;;20.50;52.72;99500.50;20856975;28;20041;-82
2023/01/20 04:57:02;;;;;;;3.42;2.60;;;;;;;20.53;52.54;99493.16;20838644;28;20497;-82
2023/01/20 05:07:03;;;;;;;3.55;2.63;;;;;;;20.57;51.74;99456.91;20834643;28;20046;-78
2023/01/20 05:17:03;;;;;;;4.47;2.95;;;;;;;20.58;51.89;99443.63;20833555;28;20042;-81
2023/01/20 05:27:04;;;;;;;6.47;2.83;;;;;;;20.63;52.29;99444.03;20830676;28;20053;-79
2023/01/20 05:37:04;;;;;;;12.57;3.25;;;;;;;20.73;53.31;99454.56;20838696;28;20101;-84
2023/01/20 05:47:06;;;;;;;8.13;3.22;;;;;;;20.81;52.66;99453.88;20859014;28;20051;-81
2023/01/20 05:57:07;;;;;;;14.95;4.38;;;;;;;20.90;53.47;99460.13;20907651;28;20049;-79
2023/01/20 06:07:08;;;;;;;9.65;3.55;;;;;;;20.91;50.92;99459.97;20905472;28;20048;-77
2023/01/20 06:17:09;;;;;;;12.45;3.67;;;;;;;20.97;52.50;99455.97;20910317;28;20090;-77
2023/01/20 06:27:10;;;;;;;12.30;4.28;;;;;;;20.94;48.75;99458.88;20920045;28;20056;-78
2023/01/20 06:37:10;;;;;;;7.68;3.63;;;;;;;21.01;50.85;99441.53;20929178;28;20594;-78
2023/01/20 06:47:11;;;;;;;9.63;3.78;;;;;;;21.12;51.93;99459.00;20937671;28;20072;-79
2023/01/20 06:57:11;;;;;;;7.20;3.00;;;;;;;21.20;52.00;99482.81;20922907;28;20439;-78
2023/01/20 07:07:12;;;;;;;9.63;3.58;;;;;;;21.26;51.94;99489.28;20910357;28;20098;-79
2023/01/20 07:17:12;;;;;;;8.27;3.10;;;;;;;21.32;51.91;99499.25;20929654;28;20594;-78
2023/01/20 07:27:14;;;;;;;5.00;2.90;;;;;;;21.36;52.19;99508.56;20915146;28;20040;-78
2023/01/20 07:37:14;;;;;;;6.25;3.17;;;;;;;21.42;52.13;99508.00;20934369;28;20052;-78
2023/01/20 07:47:15;;;;;;;6.35;2.80;;;;;;;21.48;52.49;99509.22;20927966;28;20142;-79
2023/01/20 07:57:15;;;;;;;6.68;2.70;;;;;;;21.53;52.26;99520.16;20922543;28;20040;-78
2023/01/20 08:07:15;;;;;;;5.75;2.63;;;;;;;21.57;52.12;99526.00;20924679;28;20101;-77
2023/01/20 08:17:17;;;;;;;6.72;2.97;;;;;;;21.61;52.09;99524.75;20911260;28;20053;-78
2023/01/20 08:27:18;;;;;;;6.18;3.20;;;;;;;21.64;52.12;99535.00;20927597;28;20320;-78
2023/01/20 08:37:19;;;;;;;9.38;5.47;;;;;;;21.65;51.97;99541.09;20932848;28;20048;-78
2023/01/20 08:47:19;;;;;;;8.35;5.10;;;;;;;21.66;51.80;99535.69;20921006;28;20045;-79
2023/01/20 08:57:24;;;;;;;7.97;5.00;;;;;;;21.69;51.80;99545.94;20913189;28;20042;-80
2023/01/20 09:07:25;;;;;;;7.93;5.05;;;;;;;21.69;51.96;99551.22;20932732;28;20048;-79
2023/01/20 09:17:28;;;;;;;7.25;4.68;;;;;;;21.70;51.95;99544.97;20935171;28;20053;-77
2023/01/20 09:27:28;;;;;;;7.93;4.88;;;;;;;21.71;51.90;99536.06;20948072;28;20041;-80
2023/01/20 09:47:48;;;;;;;7.95;5.03;;;;;;;21.71;51.63;99496.56;20948053;28;20044;-78
2023/01/20 09:57:58;;;;;;;7.85;5.60;;;;;;;21.68;51.45;99477.56;20946355;28;20518;-80
2023/01/20 10:08:05;;;;;;;7.68;5.72;;;;;;;21.65;51.13;99447.06;20949513;28;20214;-81
2023/01/20 10:18:15;;;;;;;8.90;5.25;;;;;;;21.64;51.02;99416.47;20933873;28;20067;-80
2023/01/20 10:28:33;;;;;;;10.35;6.32;;;;;;;21.64;50.64;99423.53;20942499;28;20048;-79
2023/01/20 10:38:37;;;;;;;7.55;5.30;;;;;;;21.65;50.90;99433.09;20926088;28;20064;-78
2023/01/20 10:48:49;;;;;;;8.98;5.68;;;;;;;21.63;50.51;99442.94;20936093;28;20048;-78
2023/01/20 10:58:50;;;;;;;8.85;5.90;;;;;;;21.65;50.54;99454.97;20937922;28;20138;-78
2023/01/20 11:08:51;;;;;;;9.07;5.78;;;;;;;21.64;50.34;99452.50;20924911;28;20103;-78
2023/01/20 11:18:56;;;;;;;8.73;6.13;;;;;;;21.61;49.86;99429.09;20935387;28;20067;-79
2023/01/20 11:29:01;;;;;;;9.60;6.63;;;;;;;21.62;50.16;99412.28;20934995;28;20040;-77
2023/01/20 11:39:01;;;;;;;9.38;6.20;;;;;;;21.59;50.32;99387.91;20933097;28;20144;-78
2023/01/20 11:49:21;;;;;;;9.18;5.93;;;;;;;21.55;49.52;99381.22;20920502;28;20059;-78
2023/01/20 11:59:28;;;;;;;10.73;6.60;;;;;;;21.55;49.67;99381.22;20931420;28;20052;-78
2023/01/20 12:09:35;;;;;;;8.82;6.05;;;;;;;21.52;49.57;99378.91;20929559;28;20044;-78
2023/01/20 12:20:00;;;;;;;9.95;5.68;;;;;;;21.50;49.55;99380.84;20920854;28;20644;-77
2023/01/20 12:30:15;;;;;;;8.02;5.80;;;;;;;21.49;49.63;99391.53;20933163;28;20043;-78
2023/01/20 12:40:19;;;;;;;8.80;5.47;;;;;;;21.49;49.35;99371.28;20933595;28;20083;-77
2023/01/20 12:50:40;;;;;;;7.40;5.18;;;;;;;21.49;49.32;99375.72;20935742;28;20436;-76
2023/01/20 13:00:52;;;;;;;7.13;4.90;;;;;;;21.48;49.26;99389.88;20941051;28;20130;-76
2023/01/20 13:11:41;;;;;;;6.35;4.70;;;;;;;21.49;48.93;99399.44;20933282;28;20094;-77
2023/01/20 13:21:41;;;;;;;8.82;4.68;;;;;;;21.49;48.07;99394.97;20919682;28;20503;-77
2023/01/20 13:31:44;;;;;;;8.82;4.60;;;;;;;21.53;48.90;99399.00;20926307;28;20040;-78
2023/01/20 13:41:50;;;;;;;;;;;;;;;21.52;49.09;99401.75;20903419;28;20048;-77
2023/01/20 13:51:51;;;;;;;8.45;4.28;;;;;;;21.57;48.97;99403.03;20948866;28;20363;-78
2023/01/20 14:01:53;;;;;;;19.55;4.50;;;;;;;21.56;49.53;99413.69;20931755;28;20042;-77
2023/01/20 14:11:56;;;;;;;14.23;5.03;;;;;;;21.59;49.96;99432.69;20919473;28;20040;-81
2023/01/20 14:22:02;;;;;;;7.30;4.43;;;;;;;21.60;49.46;99438.78;20928516;28;20045;-75
2023/01/20 14:32:30;;;;;;;8.68;4.40;;;;;;;21.58;49.86;99427.56;20935709;28;20376;-79
2023/01/20 14:42:31;;;;;;;10.93;4.35;;;;;;;21.56;50.41;99445.28;20939140;28;20098;-80
2023/01/20 14:52:31;;;;;;;6.65;4.32;;;;;;;21.51;50.06;99451.00;20928377;28;20048;-78
2023/01/20 15:02:36;;;;;;;7.03;4.70;;;;;;;21.50;49.80;99456.41;20917126;28;20052;-78
2023/01/20 15:12:45;;;;;;;10.20;4.75;;;;;;;21.49;49.66;99468.72;20931982;28;20174;-80
2023/01/20 15:22:52;;;;;;;7.93;4.70;;;;;;;21.49;49.17;99465.28;20950770;28;20049;-78
2023/01/20 15:32:54;;;;;;;9.95;4.35;;;;;;;21.48;49.03;99469.69;20934719;28;20036;-79
2023/01/20 15:42:56;;;;;;;4.90;3.87;;;;;;;21.47;49.08;99478.59;20907173;28;20040;-80
2023/01/20 15:52:56;;;;;;;8.35;4.35;;;;;;;21.45;48.98;99467.38;20914547;28;20043;-78
2023/01/20 16:02:58;;;;;;;6.50;3.65;;;;;;;21.42;48.42;99489.56;20921246;28;20045;-79
2023/01/20 16:12:58;;;;;;;4.40;3.63;;;;;;;21.43;48.90;99500.91;20908505;28;20067;-79
2023/01/20 16:22:59;;;;;;;6.18;4.07;;;;;;;21.40;48.74;99501.22;20940290;28;20056;-78
2023/01/20 16:32:59;;;;;;;4.15;3.25;;;;;;;21.38;48.42;99501.31;20921441;28;20126;-79
2023/01/20 16:43:00;;;;;;;5.10;3.83;;;;;;;21.35;48.08;99496.34;20939022;28;20041;-83
2023/01/20 16:53:00;;;;;;;6.68;4.00;;;;;;;21.32;47.98;99515.06;20926903;28;20033;-89
2023/01/20 17:03:01;;;;;;;6.82;3.75;;;;;;;21.29;48.09;99510.09;20906638;28;20049;-86
2023/01/20 17:13:02;;;;;;;8.80;4.88;;;;;;;21.29;48.01;99496.94;20941193;28;20772;-88
2023/01/20 17:23:03;;;;;;;6.93;4.40;;;;;;;21.27;47.97;99504.94;20902243;28;20381;-86
2023/01/20 17:33:03;;;;;;;5.78;4.15;;;;;;;21.26;48.11;99505.94;20938268;28;20393;-81
2023/01/20 17:43:04;;;;;;;9.05;4.55;;;;;;;21.31;48.08;99507.31;20948000;28;20052;-83
2023/01/20 17:53:04;;;;;;;7.32;4.80;;;;;;;21.36;47.99;99515.63;20955656;28;20506;-82
2023/01/20 18:03:05;;;;;;;8.98;4.47;;;;;;;21.42;47.46;99497.47;20932979;28;20053;-80
2023/01/20 18:13:06;;;;;;;12.20;9.98;;;;;;;21.48;47.65;99514.47;20937884;28;20037;-80
2023/01/20 18:23:07;;;;;;;18.15;13.27;;;;;;;21.57;48.54;99499.69;20908459;28;20305;-78
2023/01/20 18:33:08;;;;;;;19.10;15.00;;;;;;;21.67;48.53;99489.91;20948243;28;20040;-79
2023/01/20 18:43:10;;;;;;;22.90;16.77;;;;;;;21.71;48.79;99487.84;20957167;28;20043;-78
2023/01/20 18:53:15;;;;;;;21.63;16.08;;;;;;;21.74;48.57;99484.91;20944405;28;20382;-78
2023/01/20 19:03:15;;;;;;;20.88;15.38;;;;;;;21.78;48.12;99474.94;20941289;28;20135;-79
2023/01/20 19:13:16;;;;;;;17.52;14.00;;;;;;;21.77;48.13;99473.25;20948675;28;20056;-81
2023/01/20 19:23:17;;;;;;;16.40;12.13;;;;;;;21.80;47.91;99472.94;20907136;28;20040;-80
2023/01/20 19:33:18;;;;;;;13.95;11.32;;;;;;;21.64;47.75;99494.66;20931177;28;20066;-80
2023/01/20 19:43:20;;;;;;;20.20;11.50;;;;;;;21.59;48.80;99492.44;20924947;28;20044;-82
2023/01/20 19:53:20;;;;;;;17.55;11.88;;;;;;;21.62;48.58;99504.50;20903163;28;20041;-80
2023/01/20 20:03:24;;;;;;;16.75;11.52;;;;;;;21.60;48.89;99502.00;20911448;28;20070;-78
2023/01/20 20:13:25;;;;;;;20.20;11.55;;;;;;;21.58;49.72;99525.00;20918110;28;20048;-81
2023/01/20 20:23:25;;;;;;;17.02;10.10;;;;;;;21.60;49.52;99520.44;20892887;28;20051;-80
2023/01/20 20:33:26;;;;;;;17.13;10.20;;;;;;;21.55;48.33;99536.63;20903312;28;20040;-83
2023/01/20 20:43:27;;;;;;;21.77;9.70;;;;;;;21.49;48.47;99536.41;20931122;28;20289;-83
2023/01/20 20:53:28;;;;;;;16.65;9.60;;;;;;;21.50;48.81;99552.03;20913402;28;20128;-80
2023/01/20 21:03:31;;;;;;;17.25;9.32;;;;;;;21.48;48.83;99553.97;20919409;28;20041;-81
2023/01/20 21:13:32;;;;;;;13.07;9.38;;;;;;;21.44;48.98;99552.63;20914625;28;20045;-80
2023/01/20 21:23:33;;;;;;;13.93;8.90;;;;;;;21.43;48.76;99572.00;20913719;28;20052;-80
2023/01/20 21:33:40;;;;;;;16.55;10.05;;;;;;;21.41;49.20;99582.69;20925000;28;20051;-80
2023/01/20 21:54:02;;;;;;;11.90;8.32;;;;;;;21.35;49.56;99596.44;20890499;28;20498;-80
2023/01/20 22:04:03;;;;;;;13.25;8.18;;;;;;;21.34;49.51;99610.56;20903935;28;20052;-80
2023/01/20 22:14:03;;;;;;;12.50;8.15;;;;;;;21.30;49.58;99626.78;20931500;28;20554;-79
2023/01/20 22:24:05;;;;;;;12.57;7.97;;;;;;;21.28;49.52;99632.19;20930104;28;20503;-79
2023/01/20 22:34:07;;;;;;;11.10;7.78;;;;;;;21.24;49.72;99618.47;20919268;28;20144;-80
2023/01/20 22:44:08;;;;;;;9.95;7.13;;;;;;;21.22;49.48;99630.09;20931949;28;20492;-79
2023/01/20 22:54:09;;;;;;;12.52;7.40;;;;;;;21.21;49.91;99625.78;20936145;28;20128;-80
2023/01/20 23:04:10;;;;;;;10.38;6.90;;;;;;;21.18;49.81;99626.91;20918089;28;20434;-78
2023/01/20 23:14:12;;;;;;;8.55;6.30;;;;;;;21.16;50.04;99622.75;20921866;28;20040;-78
2023/01/20 23:24:12;;;;;;;9.67;6.47;;;;;;;21.11;49.63;99644.22;20920133;28;20060;-79
2023/01/20 23:34:13;;;;;;;10.77;6.90;;;;;;;21.10;49.97;99653.06;20933208;28;20048;-78
2023/01/20 23:44:13;;;;;;;8.73;6.13;;;;;;;21.07;50.15;99666.53;20961556;28;20108;-77
2023/01/20 23:54:14;;;;;;;10.07;6.43;;;;;;;21.06;49.97;99673.56;20932044;28;20033;-78
